sensor_id;sensor_type;location;lat;lon;timestamp;temperature;humidity
15296;DHT22;7749;49.964;7.890;2023-05-07T00:01:43;14.80;99.90
15296;DHT22;7749;49.964;7.890;2023-05-07T00:04:11;14.70;99.90
15296;DHT22;7749;49.964;7.890;2023-05-07T00:06:41;14.70;99.90
15296;DHT22;7749;49.964;7.890;2023-05-07T00:09:08;14.70;99.90
15296;DHT22;7749;49.964;7.890;2023-05-07T00:11:36;14.70;99.90
15296;DHT22;7749;49.964;7.890;2023-05-07T00:14:06;14.70;99.90
15296;DHT22;7749;49.964;7.890;2023-05-07T00:16:34;14.60;99.90
15296;DHT22;7749;49.964;7.890;2023-05-07T00:19:02;14.60;99.90
15296;DHT22;7749;49.964;7.890;2023-05-07T00:21:29;14.70;99.90
15296;DHT22;7749;49.964;7.890;2023-05-07T00:23:58;14.60;99.90
15296;DHT22;7749;49.964;7.890;2023-05-07T00:26:26;14.70;99.90
15296;DHT22;7749;49.964;7.890;2023-05-07T00:28:53;14.70;99.90
15296;DHT22;7749;49.964;7.890;2023-05-07T00:31:21;14.70;99.90
15296;DHT22;7749;49.964;7.890;2023-05-07T00:33:49;14.70;99.90
15296;DHT22;7749;49.964;7.890;2023-05-07T00:36:17;14.80;99.90
15296;DHT22;7749;49.964;7.890;2023-05-07T00:38:44;14.80;99.90
15296;DHT22;7749;49.964;7.890;2023-05-07T00:41:12;14.70;99.90
15296;DHT22;7749;49.964;7.890;2023-05-07T00:43:40;14.80;99.90
15296;DHT22;7749;49.964;7.890;2023-05-07T00:46:08;14.80;99.90
15296;DHT22;7749;49.964;7.890;2023-05-07T00:48:40;14.60;99.90
15296;DHT22;7749;49.964;7.890;2023-05-07T00:51:07;14.50;99.90
15296;DHT22;7749;49.964;7.890;2023-05-07T00:53:37;14.40;99.90
15296;DHT22;7749;49.964;7.890;2023-05-07T00:56:09;14.40;99.90
15296;DHT22;7749;49.964;7.890;2023-05-07T00:58:37;14.30;99.90
15296;DHT22;7749;49.964;7.890;2023-05-07T01:01:05;14.20;99.90
15296;DHT22;7749;49.964;7.890;2023-05-07T01:03:33;14.20;99.90
15296;DHT22;7749;49.964;7.890;2023-05-07T01:06:03;14.20;99.90
15296;DHT22;7749;49.964;7.890;2023-05-07T01:08:34;14.20;99.90
15296;DHT22;7749;49.964;7.890;2023-05-07T01:11:03;14.30;99.90
15296;DHT22;7749;49.964;7.890;2023-05-07T01:13:31;14.10;99.90
15296;DHT22;7749;49.964;7.890;2023-05-07T01:15:59;14.10;99.90
15296;DHT22;7749;49.964;7.890;2023-05-07T01:18:31;14.00;99.90
15296;DHT22;7749;49.964;7.890;2023-05-07T01:21:01;14.20;99.90
15296;DHT22;7749;49.964;7.890;2023-05-07T01:23:33;14.00;99.90
15296;DHT22;7749;49.964;7.890;2023-05-07T01:26:01;14.00;99.90
15296;DHT22;7749;49.964;7.890;2023-05-07T01:28:28;14.10;99.90
15296;DHT22;7749;49.964;7.890;2023-05-07T01:31:00;13.90;99.90
15296;DHT22;7749;49.964;7.890;2023-05-07T01:33:31;13.80;99.90
15296;DHT22;7749;49.964;7.890;2023-05-07T01:36:01;13.80;99.90
15296;DHT22;7749;49.964;7.890;2023-05-07T01:38:34;13.80;99.90
15296;DHT22;7749;49.964;7.890;2023-05-07T01:41:11;13.80;99.90
15296;DHT22;7749;49.964;7.890;2023-05-07T01:43:41;13.70;99.90
15296;DHT22;7749;49.964;7.890;2023-05-07T01:46:12;13.80;99.90
15296;DHT22;7749;49.964;7.890;2023-05-07T01:48:41;13.70;99.90
15296;DHT22;7749;49.964;7.890;2023-05-07T01:51:11;13.80;99.90
15296;DHT22;7749;49.964;7.890;2023-05-07T01:53:39;13.80;99.90
15296;DHT22;7749;49.964;7.890;2023-05-07T01:56:08;13.80;99.90
15296;DHT22;7749;49.964;7.890;2023-05-07T01:58:35;13.80;99.90
15296;DHT22;7749;49.964;7.890;2023-05-07T02:01:03;13.80;99.90
15296;DHT22;7749;49.964;7.890;2023-05-07T02:03:31;13.80;99.90
15296;DHT22;7749;49.964;7.890;2023-05-07T02:05:59;13.80;99.90
15296;DHT22;7749;49.964;7.890;2023-05-07T02:08:26;13.80;99.90
15296;DHT22;7749;49.964;7.890;2023-05-07T02:10:57;14.00;99.90
15296;DHT22;7749;49.964;7.890;2023-05-07T02:13:29;13.80;99.90
15296;DHT22;7749;49.964;7.890;2023-05-07T02:15:57;13.90;99.90
15296;DHT22;7749;49.964;7.890;2023-05-07T02:18:25;13.80;99.90
15296;DHT22;7749;49.964;7.890;2023-05-07T02:20:53;13.90;99.90
15296;DHT22;7749;49.964;7.890;2023-05-07T02:23:21;13.80;99.90
15296;DHT22;7749;49.964;7.890;2023-05-07T02:25:48;13.60;99.90
15296;DHT22;7749;49.964;7.890;2023-05-07T02:28:16;13.50;99.90
15296;DHT22;7749;49.964;7.890;2023-05-07T02:30:44;13.50;99.90
15296;DHT22;7749;49.964;7.890;2023-05-07T02:33:15;13.60;99.90
15296;DHT22;7749;49.964;7.890;2023-05-07T02:35:43;13.50;99.90
15296;DHT22;7749;49.964;7.890;2023-05-07T02:38:11;13.50;99.90
15296;DHT22;7749;49.964;7.890;2023-05-07T02:40:39;13.50;99.90
15296;DHT22;7749;49.964;7.890;2023-05-07T02:43:07;13.60;99.90
15296;DHT22;7749;49.964;7.890;2023-05-07T02:45:35;13.60;99.90
15296;DHT22;7749;49.964;7.890;2023-05-07T02:48:06;13.60;99.90
15296;DHT22;7749;49.964;7.890;2023-05-07T02:50:35;13.60;99.90
15296;DHT22;7749;49.964;7.890;2023-05-07T02:53:05;13.70;99.90
15296;DHT22;7749;49.964;7.890;2023-05-07T02:55:32;13.60;99.90
15296;DHT22;7749;49.964;7.890;2023-05-07T02:58:00;13.70;99.90
15296;DHT22;7749;49.964;7.890;2023-05-07T03:00:31;13.60;99.90
15296;DHT22;7749;49.964;7.890;2023-05-07T03:03:00;13.60;99.90
15296;DHT22;7749;49.964;7.890;2023-05-07T03:05:28;13.60;99.90
15296;DHT22;7749;49.964;7.890;2023-05-07T03:07:55;13.60;99.90
15296;DHT22;7749;49.964;7.890;2023-05-07T03:10:26;13.60;99.90
15296;DHT22;7749;49.964;7.890;2023-05-07T03:12:54;13.60;99.90
15296;DHT22;7749;49.964;7.890;2023-05-07T03:15:30;13.60;99.90
15296;DHT22;7749;49.964;7.890;2023-05-07T03:17:58;13.60;99.90
15296;DHT22;7749;49.964;7.890;2023-05-07T03:20:26;13.70;99.90
15296;DHT22;7749;49.964;7.890;2023-05-07T03:22:54;13.70;99.90
15296;DHT22;7749;49.964;7.890;2023-05-07T03:25:22;13.80;99.90
15296;DHT22;7749;49.964;7.890;2023-05-07T03:27:49;13.70;99.90
15296;DHT22;7749;49.964;7.890;2023-05-07T03:30:18;13.70;99.90
15296;DHT22;7749;49.964;7.890;2023-05-07T03:32:46;13.70;99.90
15296;DHT22;7749;49.964;7.890;2023-05-07T03:35:14;13.70;99.90
15296;DHT22;7749;49.964;7.890;2023-05-07T03:37:42;13.80;99.90
15296;DHT22;7749;49.964;7.890;2023-05-07T03:40:10;13.60;99.90
15296;DHT22;7749;49.964;7.890;2023-05-07T03:42:40;13.60;99.90
15296;DHT22;7749;49.964;7.890;2023-05-07T03:45:08;13.60;99.90
15296;DHT22;7749;49.964;7.890;2023-05-07T03:47:36;13.60;99.90
15296;DHT22;7749;49.964;7.890;2023-05-07T03:50:04;13.60;99.90
15296;DHT22;7749;49.964;7.890;2023-05-07T03:52:32;13.60;99.90
15296;DHT22;7749;49.964;7.890;2023-05-07T03:55:00;13.70;99.90
15296;DHT22;7749;49.964;7.890;2023-05-07T03:57:30;13.80;99.90
15296;DHT22;7749;49.964;7.890;2023-05-07T03:59:58;13.70;99.90
15296;DHT22;7749;49.964;7.890;2023-05-07T04:02:25;13.70;99.90
15296;DHT22;7749;49.964;7.890;2023-05-07T04:04:53;13.60;99.90
15296;DHT22;7749;49.964;7.890;2023-05-07T04:07:22;13.70;99.90
15296;DHT22;7749;49.964;7.890;2023-05-07T04:09:50;13.70;99.90
15296;DHT22;7749;49.964;7.890;2023-05-07T04:12:17;13.80;99.90
15296;DHT22;7749;49.964;7.890;2023-05-07T04:14:45;13.80;99.90
15296;DHT22;7749;49.964;7.890;2023-05-07T04:17:13;13.80;99.90
15296;DHT22;7749;49.964;7.890;2023-05-07T04:19:41;13.80;99.90
15296;DHT22;7749;49.964;7.890;2023-05-07T04:22:13;13.90;99.90
15296;DHT22;7749;49.964;7.890;2023-05-07T04:24:43;13.70;99.90
15296;DHT22;7749;49.964;7.890;2023-05-07T04:27:11;13.60;99.90
15296;DHT22;7749;49.964;7.890;2023-05-07T04:29:39;13.60;99.90
15296;DHT22;7749;49.964;7.890;2023-05-07T04:32:12;13.60;99.90
15296;DHT22;7749;49.964;7.890;2023-05-07T04:34:40;13.60;99.90
15296;DHT22;7749;49.964;7.890;2023-05-07T04:37:09;13.60;99.90
15296;DHT22;7749;49.964;7.890;2023-05-07T04:39:39;13.70;99.90
15296;DHT22;7749;49.964;7.890;2023-05-07T04:42:07;13.60;99.90
15296;DHT22;7749;49.964;7.890;2023-05-07T04:44:36;13.70;99.90
15296;DHT22;7749;49.964;7.890;2023-05-07T04:47:04;13.80;99.90
15296;DHT22;7749;49.964;7.890;2023-05-07T04:49:32;13.90;99.90
15296;DHT22;7749;49.964;7.890;2023-05-07T04:52:00;14.00;99.90
15296;DHT22;7749;49.964;7.890;2023-05-07T04:54:37;14.10;99.90
15296;DHT22;7749;49.964;7.890;2023-05-07T04:57:05;14.10;99.90
15296;DHT22;7749;49.964;7.890;2023-05-07T04:59:33;14.00;99.90
15296;DHT22;7749;49.964;7.890;2023-05-07T05:02:01;13.90;99.90
15296;DHT22;7749;49.964;7.890;2023-05-07T05:04:32;13.90;99.90
15296;DHT22;7749;49.964;7.890;2023-05-07T05:06:59;14.00;99.90
15296;DHT22;7749;49.964;7.890;2023-05-07T05:09:27;13.90;99.90
15296;DHT22;7749;49.964;7.890;2023-05-07T05:12:01;13.80;99.90
15296;DHT22;7749;49.964;7.890;2023-05-07T05:14:31;13.80;99.90
15296;DHT22;7749;49.964;7.890;2023-05-07T05:16:59;13.80;99.90
15296;DHT22;7749;49.964;7.890;2023-05-07T05:19:27;13.90;99.90
15296;DHT22;7749;49.964;7.890;2023-05-07T05:21:55;14.00;99.90
15296;DHT22;7749;49.964;7.890;2023-05-07T05:24:23;14.00;99.90
15296;DHT22;7749;49.964;7.890;2023-05-07T05:26:53;14.30;99.90
15296;DHT22;7749;49.964;7.890;2023-05-07T05:29:21;14.40;99.90
15296;DHT22;7749;49.964;7.890;2023-05-07T05:31:51;14.40;99.90
15296;DHT22;7749;49.964;7.890;2023-05-07T05:34:19;14.50;99.90
15296;DHT22;7749;49.964;7.890;2023-05-07T05:36:47;14.60;99.90
15296;DHT22;7749;49.964;7.890;2023-05-07T05:39:17;14.70;99.90
15296;DHT22;7749;49.964;7.890;2023-05-07T05:41:45;14.80;99.90
15296;DHT22;7749;49.964;7.890;2023-05-07T05:44:13;14.90;99.90
15296;DHT22;7749;49.964;7.890;2023-05-07T05:46:40;15.00;99.90
15296;DHT22;7749;49.964;7.890;2023-05-07T05:49:09;15.10;99.90
15296;DHT22;7749;49.964;7.890;2023-05-07T05:51:37;15.30;99.90
15296;DHT22;7749;49.964;7.890;2023-05-07T05:54:06;15.60;99.90
15296;DHT22;7749;49.964;7.890;2023-05-07T05:56:34;15.80;99.90
15296;DHT22;7749;49.964;7.890;2023-05-07T05:59:02;15.80;99.90
15296;DHT22;7749;49.964;7.890;2023-05-07T06:01:29;15.90;99.90
15296;DHT22;7749;49.964;7.890;2023-05-07T06:03:57;15.90;99.90
15296;DHT22;7749;49.964;7.890;2023-05-07T06:06:27;16.00;99.90
15296;DHT22;7749;49.964;7.890;2023-05-07T06:09:21;16.10;99.90
15296;DHT22;7749;49.964;7.890;2023-05-07T06:11:49;16.30;99.90
15296;DHT22;7749;49.964;7.890;2023-05-07T06:14:17;16.40;99.90
15296;DHT22;7749;49.964;7.890;2023-05-07T06:16:45;16.70;99.90
15296;DHT22;7749;49.964;7.890;2023-05-07T06:19:16;16.80;99.90
15296;DHT22;7749;49.964;7.890;2023-05-07T06:21:52;16.90;99.90
15296;DHT22;7749;49.964;7.890;2023-05-07T06:24:24;16.90;99.90
15296;DHT22;7749;49.964;7.890;2023-05-07T06:26:54;17.00;92.60
15296;DHT22;7749;49.964;7.890;2023-05-07T06:29:25;17.00;93.00
15296;DHT22;7749;49.964;7.890;2023-05-07T06:31:53;17.20;77.30
15296;DHT22;7749;49.964;7.890;2023-05-07T06:34:21;17.30;66.90
15296;DHT22;7749;49.964;7.890;2023-05-07T06:36:51;17.50;56.90
15296;DHT22;7749;49.964;7.890;2023-05-07T06:39:18;17.50;81.40
15296;DHT22;7749;49.964;7.890;2023-05-07T06:41:46;17.60;65.40
15296;DHT22;7749;49.964;7.890;2023-05-07T06:44:17;17.50;69.10
15296;DHT22;7749;49.964;7.890;2023-05-07T06:46:45;17.50;48.80
15296;DHT22;7749;49.964;7.890;2023-05-07T06:49:13;16.90;93.60
15296;DHT22;7749;49.964;7.890;2023-05-07T06:51:41;17.00;99.90
15296;DHT22;7749;49.964;7.890;2023-05-07T06:54:08;16.60;99.90
15296;DHT22;7749;49.964;7.890;2023-05-07T06:56:36;16.50;99.90
15296;DHT22;7749;49.964;7.890;2023-05-07T06:59:04;16.50;99.90
15296;DHT22;7749;49.964;7.890;2023-05-07T07:01:32;16.50;99.90
15296;DHT22;7749;49.964;7.890;2023-05-07T07:03:59;16.40;99.90
15296;DHT22;7749;49.964;7.890;2023-05-07T07:06:27;16.40;99.90
15296;DHT22;7749;49.964;7.890;2023-05-07T07:08:55;16.40;99.90
15296;DHT22;7749;49.964;7.890;2023-05-07T07:11:25;16.30;99.90
15296;DHT22;7749;49.964;7.890;2023-05-07T07:13:54;16.70;99.90
15296;DHT22;7749;49.964;7.890;2023-05-07T07:16:22;16.80;87.00
15296;DHT22;7749;49.964;7.890;2023-05-07T07:18:49;17.00;87.50
15296;DHT22;7749;49.964;7.890;2023-05-07T07:21:17;17.30;81.80
15296;DHT22;7749;49.964;7.890;2023-05-07T07:23:46;17.60;45.40
15296;DHT22;7749;49.964;7.890;2023-05-07T07:26:17;17.70;24.50
15296;DHT22;7749;49.964;7.890;2023-05-07T07:28:45;18.00;5.60
15296;DHT22;7749;49.964;7.890;2023-05-07T07:31:16;18.10;1.00
15296;DHT22;7749;49.964;7.890;2023-05-07T07:33:44;18.30;1.00
15296;DHT22;7749;49.964;7.890;2023-05-07T07:36:11;18.50;1.00
15296;DHT22;7749;49.964;7.890;2023-05-07T07:38:39;18.60;1.00
15296;DHT22;7749;49.964;7.890;2023-05-07T07:41:08;18.70;1.00
15296;DHT22;7749;49.964;7.890;2023-05-07T07:43:36;18.70;1.00
15296;DHT22;7749;49.964;7.890;2023-05-07T07:46:03;19.00;1.00
15296;DHT22;7749;49.964;7.890;2023-05-07T07:48:31;19.30;1.00
15296;DHT22;7749;49.964;7.890;2023-05-07T07:50:59;19.40;1.00
15296;DHT22;7749;49.964;7.890;2023-05-07T07:53:26;19.70;1.00
15296;DHT22;7749;49.964;7.890;2023-05-07T07:55:54;20.00;1.00
15296;DHT22;7749;49.964;7.890;2023-05-07T07:58:26;20.30;1.00
15296;DHT22;7749;49.964;7.890;2023-05-07T08:00:53;20.40;1.00
15296;DHT22;7749;49.964;7.890;2023-05-07T08:03:23;20.50;1.00
15296;DHT22;7749;49.964;7.890;2023-05-07T08:05:51;20.50;99.90
15296;DHT22;7749;49.964;7.890;2023-05-07T08:08:18;20.50;1.00
15296;DHT22;7749;49.964;7.890;2023-05-07T08:10:46;20.50;1.00
15296;DHT22;7749;49.964;7.890;2023-05-07T08:13:18;20.50;1.00
15296;DHT22;7749;49.964;7.890;2023-05-07T08:15:45;20.60;99.90
15296;DHT22;7749;49.964;7.890;2023-05-07T08:18:13;20.50;1.00
15296;DHT22;7749;49.964;7.890;2023-05-07T08:20:41;20.40;1.00
15296;DHT22;7749;49.964;7.890;2023-05-07T08:23:13;20.70;1.00
15296;DHT22;7749;49.964;7.890;2023-05-07T08:25:41;20.80;1.00
15296;DHT22;7749;49.964;7.890;2023-05-07T08:28:12;21.00;99.90
15296;DHT22;7749;49.964;7.890;2023-05-07T08:30:40;21.30;1.00
15296;DHT22;7749;49.964;7.890;2023-05-07T08:33:09;21.20;99.90
15296;DHT22;7749;49.964;7.890;2023-05-07T08:35:37;21.30;99.90
15296;DHT22;7749;49.964;7.890;2023-05-07T08:38:05;21.30;99.90
15296;DHT22;7749;49.964;7.890;2023-05-07T08:40:37;21.40;99.90
15296;DHT22;7749;49.964;7.890;2023-05-07T08:43:05;21.50;85.80
15296;DHT22;7749;49.964;7.890;2023-05-07T08:45:34;21.60;1.00
15296;DHT22;7749;49.964;7.890;2023-05-07T08:48:14;21.80;1.00
15296;DHT22;7749;49.964;7.890;2023-05-07T08:50:42;21.90;1.00
15296;DHT22;7749;49.964;7.890;2023-05-07T08:53:10;21.70;1.00
15296;DHT22;7749;49.964;7.890;2023-05-07T08:55:38;21.70;1.00
15296;DHT22;7749;49.964;7.890;2023-05-07T08:58:05;21.80;1.00
15296;DHT22;7749;49.964;7.890;2023-05-07T09:00:36;21.90;1.00
15296;DHT22;7749;49.964;7.890;2023-05-07T09:03:05;21.80;1.00
15296;DHT22;7749;49.964;7.890;2023-05-07T09:05:33;21.90;1.00
15296;DHT22;7749;49.964;7.890;2023-05-07T09:08:02;22.20;1.00
15296;DHT22;7749;49.964;7.890;2023-05-07T09:10:33;22.40;1.00
15296;DHT22;7749;49.964;7.890;2023-05-07T09:13:03;22.70;1.00
15296;DHT22;7749;49.964;7.890;2023-05-07T09:15:31;22.70;1.00
15296;DHT22;7749;49.964;7.890;2023-05-07T09:18:01;22.40;1.00
15296;DHT22;7749;49.964;7.890;2023-05-07T09:20:31;22.70;99.90
15296;DHT22;7749;49.964;7.890;2023-05-07T09:22:59;22.80;99.90
15296;DHT22;7749;49.964;7.890;2023-05-07T09:25:34;22.80;1.00
15296;DHT22;7749;49.964;7.890;2023-05-07T09:28:05;22.80;1.00
15296;DHT22;7749;49.964;7.890;2023-05-07T09:30:37;23.10;99.90
15296;DHT22;7749;49.964;7.890;2023-05-07T09:33:05;23.10;99.90
15296;DHT22;7749;49.964;7.890;2023-05-07T09:35:32;23.50;99.90
15296;DHT22;7749;49.964;7.890;2023-05-07T09:38:01;23.90;99.90
15296;DHT22;7749;49.964;7.890;2023-05-07T09:40:31;24.20;99.90
15296;DHT22;7749;49.964;7.890;2023-05-07T09:43:10;24.30;99.90
15296;DHT22;7749;49.964;7.890;2023-05-07T09:45:38;24.20;99.90
15296;DHT22;7749;49.964;7.890;2023-05-07T09:48:06;24.30;54.90
15296;DHT22;7749;49.964;7.890;2023-05-07T09:50:49;24.40;25.40
15296;DHT22;7749;49.964;7.890;2023-05-07T09:53:17;24.70;1.00
15296;DHT22;7749;49.964;7.890;2023-05-07T09:55:47;24.60;1.00
15296;DHT22;7749;49.964;7.890;2023-05-07T09:58:16;24.70;1.00
15296;DHT22;7749;49.964;7.890;2023-05-07T10:00:46;25.00;1.00
15296;DHT22;7749;49.964;7.890;2023-05-07T10:03:14;25.20;1.00
15296;DHT22;7749;49.964;7.890;2023-05-07T10:05:42;24.50;1.00
15296;DHT22;7749;49.964;7.890;2023-05-07T10:08:12;24.20;1.00
15296;DHT22;7749;49.964;7.890;2023-05-07T10:10:40;23.90;1.00
15296;DHT22;7749;49.964;7.890;2023-05-07T10:13:08;23.90;1.00
15296;DHT22;7749;49.964;7.890;2023-05-07T10:15:39;24.20;1.00
15296;DHT22;7749;49.964;7.890;2023-05-07T10:18:12;24.60;1.00
15296;DHT22;7749;49.964;7.890;2023-05-07T10:20:43;24.70;1.00
15296;DHT22;7749;49.964;7.890;2023-05-07T10:23:14;24.70;1.00
15296;DHT22;7749;49.964;7.890;2023-05-07T10:25:42;24.90;1.00
15296;DHT22;7749;49.964;7.890;2023-05-07T10:28:11;25.20;1.00
15296;DHT22;7749;49.964;7.890;2023-05-07T10:33:29;25.60;1.00
15296;DHT22;7749;49.964;7.890;2023-05-07T10:36:00;25.80;1.00
15296;DHT22;7749;49.964;7.890;2023-05-07T10:38:29;25.90;1.00
15296;DHT22;7749;49.964;7.890;2023-05-07T10:40:57;25.50;1.00
15296;DHT22;7749;49.964;7.890;2023-05-07T10:43:25;25.60;1.00
15296;DHT22;7749;49.964;7.890;2023-05-07T10:46:15;25.80;1.00
15296;DHT22;7749;49.964;7.890;2023-05-07T10:49:06;25.80;1.00
15296;DHT22;7749;49.964;7.890;2023-05-07T10:51:37;25.80;1.00
15296;DHT22;7749;49.964;7.890;2023-05-07T10:56:42;25.90;1.00
15296;DHT22;7749;49.964;7.890;2023-05-07T10:59:30;26.00;1.00
15296;DHT22;7749;49.964;7.890;2023-05-07T11:02:04;26.00;1.00
15296;DHT22;7749;49.964;7.890;2023-05-07T11:04:35;26.30;1.00
15296;DHT22;7749;49.964;7.890;2023-05-07T11:15:06;27.30;1.00
15296;DHT22;7749;49.964;7.890;2023-05-07T11:17:55;27.50;1.00
15296;DHT22;7749;49.964;7.890;2023-05-07T11:26:05;28.10;1.00
15296;DHT22;7749;49.964;7.890;2023-05-07T11:28:40;27.90;1.00
15296;DHT22;7749;49.964;7.890;2023-05-07T11:31:09;28.10;1.00
15296;DHT22;7749;49.964;7.890;2023-05-07T11:33:38;28.40;1.00
15296;DHT22;7749;49.964;7.890;2023-05-07T11:36:08;28.80;1.00
15296;DHT22;7749;49.964;7.890;2023-05-07T11:38:37;29.40;1.00
15296;DHT22;7749;49.964;7.890;2023-05-07T11:41:06;29.70;1.00
15296;DHT22;7749;49.964;7.890;2023-05-07T11:43:35;30.20;1.00
15296;DHT22;7749;49.964;7.890;2023-05-07T11:46:08;30.70;1.00
15296;DHT22;7749;49.964;7.890;2023-05-07T11:48:40;31.10;1.00
15296;DHT22;7749;49.964;7.890;2023-05-07T11:51:09;31.30;1.00
15296;DHT22;7749;49.964;7.890;2023-05-07T11:53:41;31.20;99.90
15296;DHT22;7749;49.964;7.890;2023-05-07T11:56:11;31.50;99.90
15296;DHT22;7749;49.964;7.890;2023-05-07T11:58:40;31.60;99.90
15296;DHT22;7749;49.964;7.890;2023-05-07T12:01:11;32.50;99.90
15296;DHT22;7749;49.964;7.890;2023-05-07T12:03:43;32.70;99.90
15296;DHT22;7749;49.964;7.890;2023-05-07T12:06:14;32.40;99.90
15296;DHT22;7749;49.964;7.890;2023-05-07T12:08:43;31.30;99.90
15296;DHT22;7749;49.964;7.890;2023-05-07T12:11:24;31.40;99.90
15296;DHT22;7749;49.964;7.890;2023-05-07T12:13:56;31.90;99.90
15296;DHT22;7749;49.964;7.890;2023-05-07T12:16:27;33.40;99.90
15296;DHT22;7749;49.964;7.890;2023-05-07T12:18:55;34.90;99.90
15296;DHT22;7749;49.964;7.890;2023-05-07T12:21:23;35.30;99.90
15296;DHT22;7749;49.964;7.890;2023-05-07T12:23:52;33.70;99.90
15296;DHT22;7749;49.964;7.890;2023-05-07T12:26:20;33.40;99.90
15296;DHT22;7749;49.964;7.890;2023-05-07T12:28:48;32.60;99.90
15296;DHT22;7749;49.964;7.890;2023-05-07T12:31:16;32.50;99.90
15296;DHT22;7749;49.964;7.890;2023-05-07T12:33:44;33.50;99.90
15296;DHT22;7749;49.964;7.890;2023-05-07T12:36:13;33.50;99.90
15296;DHT22;7749;49.964;7.890;2023-05-07T12:38:41;33.60;99.90
15296;DHT22;7749;49.964;7.890;2023-05-07T12:41:10;33.00;99.90
15296;DHT22;7749;49.964;7.890;2023-05-07T12:43:40;32.20;99.90
15296;DHT22;7749;49.964;7.890;2023-05-07T12:46:11;32.20;99.90
15296;DHT22;7749;49.964;7.890;2023-05-07T12:48:44;32.20;99.90
15296;DHT22;7749;49.964;7.890;2023-05-07T12:51:15;32.90;99.90
15296;DHT22;7749;49.964;7.890;2023-05-07T12:53:43;34.00;99.90
15296;DHT22;7749;49.964;7.890;2023-05-07T12:56:11;35.00;99.90
15296;DHT22;7749;49.964;7.890;2023-05-07T12:58:38;35.10;99.90
15296;DHT22;7749;49.964;7.890;2023-05-07T13:01:07;35.80;99.90
15296;DHT22;7749;49.964;7.890;2023-05-07T13:03:38;34.60;99.90
15296;DHT22;7749;49.964;7.890;2023-05-07T13:06:08;35.30;99.90
15296;DHT22;7749;49.964;7.890;2023-05-07T13:08:41;34.70;99.90
15296;DHT22;7749;49.964;7.890;2023-05-07T13:11:11;36.00;99.90
15296;DHT22;7749;49.964;7.890;2023-05-07T13:13:40;36.50;99.90
15296;DHT22;7749;49.964;7.890;2023-05-07T13:16:10;35.80;99.90
15296;DHT22;7749;49.964;7.890;2023-05-07T13:18:39;36.70;99.90
15296;DHT22;7749;49.964;7.890;2023-05-07T13:21:07;37.20;99.90
15296;DHT22;7749;49.964;7.890;2023-05-07T13:23:40;37.30;99.90
15296;DHT22;7749;49.964;7.890;2023-05-07T13:26:08;37.00;99.90
15296;DHT22;7749;49.964;7.890;2023-05-07T13:28:53;36.90;99.90
15296;DHT22;7749;49.964;7.890;2023-05-07T13:31:22;37.90;99.90
15296;DHT22;7749;49.964;7.890;2023-05-07T13:33:50;37.20;99.90
15296;DHT22;7749;49.964;7.890;2023-05-07T13:36:18;38.30;99.90
15296;DHT22;7749;49.964;7.890;2023-05-07T13:38:49;38.70;99.90
15296;DHT22;7749;49.964;7.890;2023-05-07T13:41:17;39.00;99.90
15296;DHT22;7749;49.964;7.890;2023-05-07T13:43:48;39.10;99.90
15296;DHT22;7749;49.964;7.890;2023-05-07T13:46:19;39.40;99.90
15296;DHT22;7749;49.964;7.890;2023-05-07T13:48:47;39.30;99.90
15296;DHT22;7749;49.964;7.890;2023-05-07T13:51:14;38.90;99.90
15296;DHT22;7749;49.964;7.890;2023-05-07T13:53:42;39.60;99.90
15296;DHT22;7749;49.964;7.890;2023-05-07T13:56:10;39.60;99.90
15296;DHT22;7749;49.964;7.890;2023-05-07T13:58:38;39.40;99.90
15296;DHT22;7749;49.964;7.890;2023-05-07T14:01:25;38.60;99.90
15296;DHT22;7749;49.964;7.890;2023-05-07T14:03:53;38.10;99.90
15296;DHT22;7749;49.964;7.890;2023-05-07T14:06:21;38.40;99.90
15296;DHT22;7749;49.964;7.890;2023-05-07T14:08:49;38.60;99.90
15296;DHT22;7749;49.964;7.890;2023-05-07T14:11:17;37.40;99.90
15296;DHT22;7749;49.964;7.890;2023-05-07T14:13:44;37.50;99.90
15296;DHT22;7749;49.964;7.890;2023-05-07T14:16:12;37.40;99.90
15296;DHT22;7749;49.964;7.890;2023-05-07T14:18:40;37.90;99.90
15296;DHT22;7749;49.964;7.890;2023-05-07T14:21:10;37.90;99.90
15296;DHT22;7749;49.964;7.890;2023-05-07T14:23:45;37.60;99.90
15296;DHT22;7749;49.964;7.890;2023-05-07T14:26:12;37.20;99.90
15296;DHT22;7749;49.964;7.890;2023-05-07T14:28:40;37.30;99.90
15296;DHT22;7749;49.964;7.890;2023-05-07T14:31:13;36.90;99.90
15296;DHT22;7749;49.964;7.890;2023-05-07T14:33:41;36.90;99.90
15296;DHT22;7749;49.964;7.890;2023-05-07T14:36:11;35.30;99.90
15296;DHT22;7749;49.964;7.890;2023-05-07T14:38:38;34.10;99.90
15296;DHT22;7749;49.964;7.890;2023-05-07T14:41:06;32.60;99.90
15296;DHT22;7749;49.964;7.890;2023-05-07T14:43:34;31.50;99.90
15296;DHT22;7749;49.964;7.890;2023-05-07T14:46:03;30.80;99.90
15296;DHT22;7749;49.964;7.890;2023-05-07T14:48:40;29.90;99.90
15296;DHT22;7749;49.964;7.890;2023-05-07T14:51:57;29.50;99.90
15296;DHT22;7749;49.964;7.890;2023-05-07T14:54:41;28.80;99.90
15296;DHT22;7749;49.964;7.890;2023-05-07T14:57:35;28.40;99.90
15296;DHT22;7749;49.964;7.890;2023-05-07T15:00:06;28.10;99.90
15296;DHT22;7749;49.964;7.890;2023-05-07T15:02:49;28.00;99.90
15296;DHT22;7749;49.964;7.890;2023-05-07T15:05:50;27.80;99.90
15296;DHT22;7749;49.964;7.890;2023-05-07T15:08:36;27.40;99.90
15296;DHT22;7749;49.964;7.890;2023-05-07T15:12:08;27.40;99.90
15296;DHT22;7749;49.964;7.890;2023-05-07T15:14:52;27.40;99.90
15296;DHT22;7749;49.964;7.890;2023-05-07T15:17:20;27.20;99.90
15296;DHT22;7749;49.964;7.890;2023-05-07T15:20:04;27.20;99.90
15296;DHT22;7749;49.964;7.890;2023-05-07T15:23:00;27.10;99.90
15296;DHT22;7749;49.964;7.890;2023-05-07T15:25:28;26.80;99.90
15296;DHT22;7749;49.964;7.890;2023-05-07T15:27:55;26.50;99.90
15296;DHT22;7749;49.964;7.890;2023-05-07T15:30:26;26.40;99.90
15296;DHT22;7749;49.964;7.890;2023-05-07T15:32:54;26.40;99.90
15296;DHT22;7749;49.964;7.890;2023-05-07T15:35:22;26.20;99.90
15296;DHT22;7749;49.964;7.890;2023-05-07T15:37:50;26.10;99.90
15296;DHT22;7749;49.964;7.890;2023-05-07T15:40:18;26.00;99.90
15296;DHT22;7749;49.964;7.890;2023-05-07T15:42:49;25.90;99.90
15296;DHT22;7749;49.964;7.890;2023-05-07T15:45:16;25.70;99.90
15296;DHT22;7749;49.964;7.890;2023-05-07T15:47:44;25.60;99.90
15296;DHT22;7749;49.964;7.890;2023-05-07T15:50:12;25.40;99.90
15296;DHT22;7749;49.964;7.890;2023-05-07T15:52:40;25.30;99.90
15296;DHT22;7749;49.964;7.890;2023-05-07T15:55:21;25.10;99.90
15296;DHT22;7749;49.964;7.890;2023-05-07T15:57:49;25.10;99.90
15296;DHT22;7749;49.964;7.890;2023-05-07T16:00:20;24.90;99.90
15296;DHT22;7749;49.964;7.890;2023-05-07T16:02:48;24.70;99.90
15296;DHT22;7749;49.964;7.890;2023-05-07T16:05:15;24.60;99.90
15296;DHT22;7749;49.964;7.890;2023-05-07T16:07:44;24.50;99.90
15296;DHT22;7749;49.964;7.890;2023-05-07T16:10:12;23.80;99.90
15296;DHT22;7749;49.964;7.890;2023-05-07T16:12:40;23.10;1.00
15296;DHT22;7749;49.964;7.890;2023-05-07T16:15:08;22.60;99.90
15296;DHT22;7749;49.964;7.890;2023-05-07T16:17:36;22.00;1.00
15296;DHT22;7749;49.964;7.890;2023-05-07T16:20:05;21.60;1.00
15296;DHT22;7749;49.964;7.890;2023-05-07T16:22:34;21.20;1.00
15296;DHT22;7749;49.964;7.890;2023-05-07T16:25:03;21.10;1.00
15296;DHT22;7749;49.964;7.890;2023-05-07T16:27:31;21.10;40.50